Huvudsida
METAR-TAF:

METAR-TAF

Flygplatser :

Luleå Airport

Luleå, Sverige

latitud: 65-33N, longitud: 022-08E, höjd: 17 m

Aktuellt väderrapport

Denna rapport gjordes för 23 minuter sedan, klockan 20:50 UTC
Vind 3 kt från nord/nordost
Temperatur -13°C
Fuktighet 85%
Tryck 1014 hPa
Sikt 10 km eller mer
Inga moln under 1 500 m eller inga cumulonimbus

METAR: ESPA 262050Z 02003KT CAVOK M13/M15 Q1014

Tid: 22:13 (21:13 UTC)

Väderprognos

Denna rapport gjordes för 43 minuter sedan, klockan 20:30 UTC
Prognos gäller från 26 kl. 21 UTC till 26 kl. 24 UTC
Vind 5 kt från nord/nordost
Sikt 10 km eller mer
Inga moln under 1 500 m eller inga cumulonimbus

TAF: ESPA 262030Z 2621/2624 02005KT CAVOK

Aktuella väderrapporter och prognoser från 4000 flygplatser (METAR- och TAF-rapporter).

De tillgängliga stationerna syns som gula och röda prickar på kartan.

För musen över prickarna för att se namnen på stationerna.

Klicka sedan för att få väderrapporter och prognoser.

För att ändra kartan: Klicka på de gröna knapparna med ett svart kors på för att zooma in; den gröna knappen med ett streck på för att zooma ut; eller på de gröna pilarna för angränsande kartor.


METAR-TAF: